sensor_id;sensor_type;location;lat;lon;timestamp;pressure;altitude;pressure_sealevel;temperature;humidity
14067;BME280;7108;42.684;23.350;2023-07-16T00:00:11;95529.00;;;25.87;100.00
14067;BME280;7108;42.684;23.350;2023-07-16T00:02:38;95523.66;;;25.72;100.00
14067;BME280;7108;42.684;23.350;2023-07-16T00:05:03;95520.19;;;25.68;100.00
14067;BME280;7108;42.684;23.350;2023-07-16T00:07:29;95530.38;;;25.71;100.00
14067;BME280;7108;42.684;23.350;2023-07-16T00:09:55;95517.00;;;25.69;100.00
14067;BME280;7108;42.684;23.350;2023-07-16T00:12:20;95513.16;;;25.67;100.00
14067;BME280;7108;42.684;23.350;2023-07-16T00:14:45;95513.56;;;25.65;100.00
14067;BME280;7108;42.684;23.350;2023-07-16T00:17:11;95521.09;;;25.77;100.00
14067;BME280;7108;42.684;23.350;2023-07-16T00:19:36;95525.06;;;25.76;100.00
14067;BME280;7108;42.684;23.350;2023-07-16T00:22:02;95526.28;;;25.75;100.00
14067;BME280;7108;42.684;23.350;2023-07-16T00:24:28;95512.16;;;25.73;100.00
14067;BME280;7108;42.684;23.350;2023-07-16T00:26:53;95517.78;;;25.70;100.00
14067;BME280;7108;42.684;23.350;2023-07-16T00:29:19;95508.44;;;25.55;100.00
14067;BME280;7108;42.684;23.350;2023-07-16T00:31:44;95528.06;;;25.69;100.00
14067;BME280;7108;42.684;23.350;2023-07-16T00:34:10;95530.13;;;25.65;100.00
14067;BME280;7108;42.684;23.350;2023-07-16T00:36:35;95520.47;;;25.61;100.00
14067;BME280;7108;42.684;23.350;2023-07-16T00:39:00;95527.72;;;25.67;100.00
14067;BME280;7108;42.684;23.350;2023-07-16T00:41:26;95522.19;;;25.67;100.00
14067;BME280;7108;42.684;23.350;2023-07-16T00:43:52;95520.34;;;25.64;100.00
14067;BME280;7108;42.684;23.350;2023-07-16T00:46:19;95523.41;;;25.66;100.00
14067;BME280;7108;42.684;23.350;2023-07-16T00:48:44;95514.63;;;25.46;100.00
14067;BME280;7108;42.684;23.350;2023-07-16T00:51:10;95520.88;;;25.59;100.00
14067;BME280;7108;42.684;23.350;2023-07-16T00:53:36;95507.00;;;25.50;100.00
14067;BME280;7108;42.684;23.350;2023-07-16T00:56:01;95506.13;;;25.53;100.00
14067;BME280;7108;42.684;23.350;2023-07-16T00:58:27;95512.75;;;25.56;100.00
14067;BME280;7108;42.684;23.350;2023-07-16T01:00:52;95521.03;;;25.56;100.00
14067;BME280;7108;42.684;23.350;2023-07-16T01:03:18;95511.44;;;25.48;100.00
14067;BME280;7108;42.684;23.350;2023-07-16T01:08:32;95522.53;;;25.57;100.00
14067;BME280;7108;42.684;23.350;2023-07-16T01:11:01;95498.66;;;25.41;100.00
14067;BME280;7108;42.684;23.350;2023-07-16T01:13:27;95526.59;;;25.43;100.00
14067;BME280;7108;42.684;23.350;2023-07-16T01:15:53;95519.81;;;25.44;100.00
14067;BME280;7108;42.684;23.350;2023-07-16T01:18:19;95526.88;;;25.45;100.00
14067;BME280;7108;42.684;23.350;2023-07-16T01:20:44;95517.31;;;25.37;100.00
14067;BME280;7108;42.684;23.350;2023-07-16T01:29:31;95520.06;;;25.37;100.00
14067;BME280;7108;42.684;23.350;2023-07-16T01:31:37;95524.25;;;25.42;100.00
14067;BME280;7108;42.684;23.350;2023-07-16T01:34:04;95503.88;;;25.27;100.00
14067;BME280;7108;42.684;23.350;2023-07-16T01:36:31;95511.91;;;25.34;100.00
14067;BME280;7108;42.684;23.350;2023-07-16T01:38:56;95492.84;;;25.14;100.00
14067;BME280;7108;42.684;23.350;2023-07-16T01:41:22;95522.19;;;25.21;100.00
14067;BME280;7108;42.684;23.350;2023-07-16T01:43:47;95520.00;;;25.16;100.00
14067;BME280;7108;42.684;23.350;2023-07-16T01:46:13;95513.06;;;25.12;100.00
14067;BME280;7108;42.684;23.350;2023-07-16T01:48:39;95534.34;;;25.11;100.00
14067;BME280;7108;42.684;23.350;2023-07-16T01:51:04;95526.72;;;25.15;100.00
14067;BME280;7108;42.684;23.350;2023-07-16T01:53:30;95525.97;;;25.14;100.00
14067;BME280;7108;42.684;23.350;2023-07-16T01:55:57;95519.78;;;25.11;100.00
14067;BME280;7108;42.684;23.350;2023-07-16T01:58:22;95516.69;;;25.09;100.00
14067;BME280;7108;42.684;23.350;2023-07-16T02:00:50;95532.47;;;25.20;100.00
14067;BME280;7108;42.684;23.350;2023-07-16T02:03:15;95520.66;;;25.20;100.00
14067;BME280;7108;42.684;23.350;2023-07-16T02:05:41;95524.97;;;25.09;100.00
14067;BME280;7108;42.684;23.350;2023-07-16T02:08:06;95530.81;;;25.11;100.00
14067;BME280;7108;42.684;23.350;2023-07-16T02:10:32;95530.56;;;25.17;100.00
14067;BME280;7108;42.684;23.350;2023-07-16T02:12:57;95525.97;;;25.14;100.00
14067;BME280;7108;42.684;23.350;2023-07-16T02:15:23;95532.00;;;25.22;100.00
14067;BME280;7108;42.684;23.350;2023-07-16T02:17:48;95528.81;;;25.23;100.00
14067;BME280;7108;42.684;23.350;2023-07-16T02:20:14;95531.00;;;25.28;100.00
14067;BME280;7108;42.684;23.350;2023-07-16T02:22:39;95525.94;;;25.27;100.00
14067;BME280;7108;42.684;23.350;2023-07-16T02:25:05;95511.72;;;25.16;100.00
14067;BME280;7108;42.684;23.350;2023-07-16T02:27:31;95522.19;;;25.21;100.00
14067;BME280;7108;42.684;23.350;2023-07-16T02:29:57;95522.19;;;25.21;100.00
14067;BME280;7108;42.684;23.350;2023-07-16T02:32:22;95517.47;;;25.21;100.00
14067;BME280;7108;42.684;23.350;2023-07-16T02:34:48;95538.63;;;25.24;100.00
14067;BME280;7108;42.684;23.350;2023-07-16T02:37:13;95533.66;;;25.19;100.00
14067;BME280;7108;42.684;23.350;2023-07-16T02:39:40;95526.84;;;25.12;100.00
14067;BME280;7108;42.684;23.350;2023-07-16T02:42:06;95527.97;;;25.14;100.00
14067;BME280;7108;42.684;23.350;2023-07-16T02:44:31;95535.34;;;25.17;100.00
14067;BME280;7108;42.684;23.350;2023-07-16T02:46:57;95527.63;;;25.12;100.00
14067;BME280;7108;42.684;23.350;2023-07-16T02:49:22;95524.09;;;25.12;100.00
14067;BME280;7108;42.684;23.350;2023-07-16T02:51:48;95528.38;;;25.13;100.00
14067;BME280;7108;42.684;23.350;2023-07-16T02:54:13;95544.38;;;25.17;100.00
14067;BME280;7108;42.684;23.350;2023-07-16T02:56:39;95528.50;;;25.09;100.00
14067;BME280;7108;42.684;23.350;2023-07-16T02:59:04;95527.72;;;25.09;100.00
14067;BME280;7108;42.684;23.350;2023-07-16T03:01:30;95536.53;;;25.16;100.00
14067;BME280;7108;42.684;23.350;2023-07-16T03:03:55;95534.34;;;25.11;100.00
14067;BME280;7108;42.684;23.350;2023-07-16T03:06:21;95526.97;;;25.08;100.00
14067;BME280;7108;42.684;23.350;2023-07-16T03:08:46;95519.66;;;25.02;100.00
14067;BME280;7108;42.684;23.350;2023-07-16T03:11:12;95544.50;;;25.14;100.00
14067;BME280;7108;42.684;23.350;2023-07-16T03:13:37;95543.69;;;25.01;100.00
14067;BME280;7108;42.684;23.350;2023-07-16T03:16:03;95546.25;;;24.83;100.00
14067;BME280;7108;42.684;23.350;2023-07-16T03:18:29;95530.56;;;24.68;100.00
14067;BME280;7108;42.684;23.350;2023-07-16T03:20:56;95557.25;;;24.71;100.00
14067;BME280;7108;42.684;23.350;2023-07-16T03:23:21;95535.63;;;24.57;100.00
14067;BME280;7108;42.684;23.350;2023-07-16T03:25:46;95536.63;;;24.63;100.00
14067;BME280;7108;42.684;23.350;2023-07-16T03:28:13;95554.28;;;24.65;100.00
14067;BME280;7108;42.684;23.350;2023-07-16T03:30:38;95554.47;;;24.58;100.00
14067;BME280;7108;42.684;23.350;2023-07-16T03:33:04;95563.84;;;24.61;100.00
14067;BME280;7108;42.684;23.350;2023-07-16T03:35:30;95563.53;;;24.59;100.00
14067;BME280;7108;42.684;23.350;2023-07-16T03:37:55;95557.13;;;24.62;100.00
14067;BME280;7108;42.684;23.350;2023-07-16T03:40:25;95552.81;;;24.61;100.00
14067;BME280;7108;42.684;23.350;2023-07-16T03:42:51;95561.34;;;24.66;100.00
14067;BME280;7108;42.684;23.350;2023-07-16T03:45:17;95557.00;;;24.53;100.00
14067;BME280;7108;42.684;23.350;2023-07-16T03:47:42;95549.19;;;24.51;100.00
14067;BME280;7108;42.684;23.350;2023-07-16T03:50:08;95570.59;;;24.60;100.00
14067;BME280;7108;42.684;23.350;2023-07-16T03:52:34;95570.91;;;24.62;100.00
14067;BME280;7108;42.684;23.350;2023-07-16T03:54:59;95553.91;;;24.51;100.00
14067;BME280;7108;42.684;23.350;2023-07-16T03:57:25;95559.31;;;24.54;100.00
14067;BME280;7108;42.684;23.350;2023-07-16T03:59:50;95572.78;;;24.52;100.00
14067;BME280;7108;42.684;23.350;2023-07-16T04:02:16;95558.97;;;24.40;100.00
14067;BME280;7108;42.684;23.350;2023-07-16T04:04:42;95568.78;;;24.53;100.00
14067;BME280;7108;42.684;23.350;2023-07-16T04:07:07;95572.09;;;24.48;100.00
14067;BME280;7108;42.684;23.350;2023-07-16T04:09:33;95558.19;;;24.40;100.00
14067;BME280;7108;42.684;23.350;2023-07-16T04:11:58;95568.69;;;24.45;100.00
14067;BME280;7108;42.684;23.350;2023-07-16T04:14:24;95571.91;;;24.55;100.00
14067;BME280;7108;42.684;23.350;2023-07-16T04:16:49;95574.22;;;24.57;100.00
14067;BME280;7108;42.684;23.350;2023-07-16T04:19:14;95565.94;;;24.57;100.00
14067;BME280;7108;42.684;23.350;2023-07-16T04:21:40;95573.00;;;24.58;100.00
14067;BME280;7108;42.684;23.350;2023-07-16T04:24:06;95582.16;;;24.55;100.00
14067;BME280;7108;42.684;23.350;2023-07-16T04:26:31;95576.75;;;24.51;100.00
14067;BME280;7108;42.684;23.350;2023-07-16T04:28:57;95579.16;;;24.49;100.00
14067;BME280;7108;42.684;23.350;2023-07-16T04:31:23;95583.69;;;24.56;100.00
14067;BME280;7108;42.684;23.350;2023-07-16T04:33:49;95579.09;;;24.65;100.00
14067;BME280;7108;42.684;23.350;2023-07-16T04:36:15;95581.06;;;24.65;100.00
14067;BME280;7108;42.684;23.350;2023-07-16T04:38:40;95581.94;;;24.62;100.00
14067;BME280;7108;42.684;23.350;2023-07-16T04:41:06;95576.09;;;24.60;100.00
14067;BME280;7108;42.684;23.350;2023-07-16T04:43:31;95589.56;;;24.70;100.00
14067;BME280;7108;42.684;23.350;2023-07-16T04:45:57;95592.44;;;24.79;100.00
14067;BME280;7108;42.684;23.350;2023-07-16T04:48:22;95599.59;;;24.77;100.00
14067;BME280;7108;42.684;23.350;2023-07-16T04:50:48;95571.00;;;24.58;100.00
14067;BME280;7108;42.684;23.350;2023-07-16T04:53:13;95593.41;;;24.73;100.00
14067;BME280;7108;42.684;23.350;2023-07-16T04:55:39;95611.31;;;24.81;100.00
14067;BME280;7108;42.684;23.350;2023-07-16T04:58:05;95598.41;;;24.90;100.00
14067;BME280;7108;42.684;23.350;2023-07-16T05:00:33;95591.34;;;24.89;100.00
14067;BME280;7108;42.684;23.350;2023-07-16T05:02:59;95592.88;;;24.90;100.00
14067;BME280;7108;42.684;23.350;2023-07-16T05:05:24;95581.19;;;24.86;100.00
14067;BME280;7108;42.684;23.350;2023-07-16T05:07:50;95593.03;;;24.99;100.00
14067;BME280;7108;42.684;23.350;2023-07-16T05:10:15;95583.09;;;25.02;100.00
14067;BME280;7108;42.684;23.350;2023-07-16T05:12:40;95589.25;;;25.06;100.00
14067;BME280;7108;42.684;23.350;2023-07-16T05:15:06;95578.56;;;24.95;100.00
14067;BME280;7108;42.684;23.350;2023-07-16T05:17:32;95587.94;;;24.98;100.00
14067;BME280;7108;42.684;23.350;2023-07-16T05:19:57;95580.53;;;24.82;100.00
14067;BME280;7108;42.684;23.350;2023-07-16T05:22:23;95595.53;;;24.94;100.00
14067;BME280;7108;42.684;23.350;2023-07-16T05:24:48;95601.16;;;25.03;100.00
14067;BME280;7108;42.684;23.350;2023-07-16T05:27:14;95594.53;;;24.88;100.00
14067;BME280;7108;42.684;23.350;2023-07-16T05:29:39;95595.44;;;24.85;100.00
14067;BME280;7108;42.684;23.350;2023-07-16T05:32:05;95601.06;;;24.94;100.00
14067;BME280;7108;42.684;23.350;2023-07-16T05:34:31;95600.16;;;24.84;100.00
14067;BME280;7108;42.684;23.350;2023-07-16T05:36:56;95595.97;;;24.92;100.00
14067;BME280;7108;42.684;23.350;2023-07-16T05:39:22;95607.13;;;25.01;100.00
14067;BME280;7108;42.684;23.350;2023-07-16T05:41:47;95591.47;;;24.98;100.00
14067;BME280;7108;42.684;23.350;2023-07-16T05:44:13;95595.56;;;25.06;100.00
14067;BME280;7108;42.684;23.350;2023-07-16T05:46:38;95612.47;;;25.20;100.00
14067;BME280;7108;42.684;23.350;2023-07-16T05:49:04;95605.84;;;25.18;100.00
14067;BME280;7108;42.684;23.350;2023-07-16T05:51:30;95611.34;;;25.30;100.00
14067;BME280;7108;42.684;23.350;2023-07-16T05:53:55;95606.94;;;25.33;100.00
14067;BME280;7108;42.684;23.350;2023-07-16T05:56:20;95615.44;;;25.51;100.00
14067;BME280;7108;42.684;23.350;2023-07-16T05:58:46;95607.91;;;25.51;100.00
14067;BME280;7108;42.684;23.350;2023-07-16T06:01:11;95620.25;;;25.59;100.00
14067;BME280;7108;42.684;23.350;2023-07-16T06:03:37;95614.50;;;25.66;100.00
14067;BME280;7108;42.684;23.350;2023-07-16T06:06:02;95604.94;;;25.58;100.00
14067;BME280;7108;42.684;23.350;2023-07-16T06:08:28;95616.16;;;25.64;100.00
14067;BME280;7108;42.684;23.350;2023-07-16T06:10:53;95618.81;;;25.67;100.00
14067;BME280;7108;42.684;23.350;2023-07-16T06:13:19;95608.44;;;25.59;100.00
14067;BME280;7108;42.684;23.350;2023-07-16T06:15:46;95618.28;;;25.72;100.00
14067;BME280;7108;42.684;23.350;2023-07-16T06:18:14;95615.94;;;25.71;100.00
14067;BME280;7108;42.684;23.350;2023-07-16T06:20:44;95621.69;;;25.76;100.00
14067;BME280;7108;42.684;23.350;2023-07-16T06:23:09;95605.78;;;25.68;100.00
14067;BME280;7108;42.684;23.350;2023-07-16T06:25:36;95605.25;;;25.73;100.00
14067;BME280;7108;42.684;23.350;2023-07-16T06:28:02;95613.84;;;25.87;100.00
14067;BME280;7108;42.684;23.350;2023-07-16T06:30:27;95615.16;;;25.95;100.00
14067;BME280;7108;42.684;23.350;2023-07-16T06:32:52;95608.25;;;25.99;100.00
14067;BME280;7108;42.684;23.350;2023-07-16T06:35:18;95599.38;;;25.83;100.00
14067;BME280;7108;42.684;23.350;2023-07-16T06:37:43;95604.34;;;25.88;100.00
14067;BME280;7108;42.684;23.350;2023-07-16T06:40:09;95610.56;;;26.01;100.00
14067;BME280;7108;42.684;23.350;2023-07-16T06:42:34;95609.38;;;26.02;100.00
14067;BME280;7108;42.684;23.350;2023-07-16T06:45:00;95594.16;;;25.97;100.00
14067;BME280;7108;42.684;23.350;2023-07-16T06:47:25;95589.91;;;26.05;100.00
14067;BME280;7108;42.684;23.350;2023-07-16T06:49:50;95603.56;;;26.21;100.00
14067;BME280;7108;42.684;23.350;2023-07-16T06:52:22;95582.72;;;26.08;100.00
14067;BME280;7108;42.684;23.350;2023-07-16T06:54:49;95597.13;;;26.24;100.00
14067;BME280;7108;42.684;23.350;2023-07-16T06:57:15;95594.88;;;26.32;100.00
14067;BME280;7108;42.684;23.350;2023-07-16T06:59:40;95601.59;;;26.43;100.00
14067;BME280;7108;42.684;23.350;2023-07-16T07:02:06;95583.38;;;26.33;100.00
14067;BME280;7108;42.684;23.350;2023-07-16T07:04:31;95594.97;;;26.41;100.00
14067;BME280;7108;42.684;23.350;2023-07-16T07:06:57;95593.31;;;26.43;100.00
14067;BME280;7108;42.684;23.350;2023-07-16T07:09:22;95588.81;;;26.37;100.00
14067;BME280;7108;42.684;23.350;2023-07-16T07:11:48;95599.66;;;26.52;100.00
14067;BME280;7108;42.684;23.350;2023-07-16T07:14:13;95598.91;;;26.52;100.00
14067;BME280;7108;42.684;23.350;2023-07-16T07:16:38;95607.81;;;26.56;100.00
14067;BME280;7108;42.684;23.350;2023-07-16T07:19:05;95600.81;;;26.64;100.00
14067;BME280;7108;42.684;23.350;2023-07-16T07:21:31;95579.28;;;26.59;100.00
14067;BME280;7108;42.684;23.350;2023-07-16T07:23:56;95589.47;;;26.71;100.00
14067;BME280;7108;42.684;23.350;2023-07-16T07:26:22;95594.00;;;26.77;100.00
14067;BME280;7108;42.684;23.350;2023-07-16T07:28:47;95589.44;;;26.83;100.00
14067;BME280;7108;42.684;23.350;2023-07-16T07:31:13;95594.53;;;26.94;100.00
14067;BME280;7108;42.684;23.350;2023-07-16T07:33:38;95582.72;;;26.93;100.00
14067;BME280;7108;42.684;23.350;2023-07-16T07:36:04;95577.19;;;26.93;100.00
14067;BME280;7108;42.684;23.350;2023-07-16T07:38:29;95591.84;;;27.03;100.00
14067;BME280;7108;42.684;23.350;2023-07-16T07:40:55;95599.88;;;27.10;100.00
14067;BME280;7108;42.684;23.350;2023-07-16T07:43:20;95591.72;;;27.06;100.00
14067;BME280;7108;42.684;23.350;2023-07-16T07:45:46;95600.97;;;27.12;100.00
14067;BME280;7108;42.684;23.350;2023-07-16T07:48:11;95586.22;;;27.15;100.00
14067;BME280;7108;42.684;23.350;2023-07-16T07:50:37;95598.69;;;27.19;100.00
14067;BME280;7108;42.684;23.350;2023-07-16T07:53:02;95594.25;;;27.22;100.00
14067;BME280;7108;42.684;23.350;2023-07-16T07:55:28;95583.78;;;27.26;100.00
14067;BME280;7108;42.684;23.350;2023-07-16T07:57:53;95596.16;;;27.43;100.00
14067;BME280;7108;42.684;23.350;2023-07-16T08:00:19;95575.06;;;27.36;100.00
14067;BME280;7108;42.684;23.350;2023-07-16T08:02:45;95590.94;;;27.45;100.00
14067;BME280;7108;42.684;23.350;2023-07-16T08:05:10;95587.56;;;27.50;100.00
14067;BME280;7108;42.684;23.350;2023-07-16T08:07:36;95580.97;;;27.56;100.00
14067;BME280;7108;42.684;23.350;2023-07-16T08:10:01;95585.63;;;27.59;100.00
14067;BME280;7108;42.684;23.350;2023-07-16T08:12:27;95590.72;;;27.70;100.00
14067;BME280;7108;42.684;23.350;2023-07-16T08:14:52;95570.88;;;27.62;100.00
14067;BME280;7108;42.684;23.350;2023-07-16T08:17:18;95583.78;;;27.65;100.00
14067;BME280;7108;42.684;23.350;2023-07-16T08:19:43;95563.94;;;27.58;100.00
14067;BME280;7108;42.684;23.350;2023-07-16T08:22:08;95574.56;;;27.68;100.00
14067;BME280;7108;42.684;23.350;2023-07-16T08:24:34;95587.97;;;27.79;100.00
14067;BME280;7108;42.684;23.350;2023-07-16T08:26:59;95587.50;;;27.71;100.00
14067;BME280;7108;42.684;23.350;2023-07-16T08:29:25;95590.25;;;27.71;100.00
14067;BME280;7108;42.684;23.350;2023-07-16T08:31:50;95587.22;;;27.78;100.00
14067;BME280;7108;42.684;23.350;2023-07-16T08:34:16;95590.13;;;27.83;100.00
14067;BME280;7108;42.684;23.350;2023-07-16T08:36:41;95585.53;;;27.81;100.00
14067;BME280;7108;42.684;23.350;2023-07-16T08:39:09;95586.31;;;27.99;100.00
14067;BME280;7108;42.684;23.350;2023-07-16T08:41:34;95584.16;;;28.03;100.00
14067;BME280;7108;42.684;23.350;2023-07-16T08:44:00;95582.59;;;28.02;100.00
14067;BME280;7108;42.684;23.350;2023-07-16T08:46:25;95572.47;;;28.08;100.00
14067;BME280;7108;42.684;23.350;2023-07-16T08:48:51;95576.78;;;28.18;100.00
14067;BME280;7108;42.684;23.350;2023-07-16T08:51:19;95538.75;;;28.00;100.00
14067;BME280;7108;42.684;23.350;2023-07-16T08:53:46;95564.16;;;28.17;100.00
14067;BME280;7108;42.684;23.350;2023-07-16T08:56:12;95560.28;;;28.14;100.00
14067;BME280;7108;42.684;23.350;2023-07-16T08:58:37;95574.34;;;28.29;100.00
14067;BME280;7108;42.684;23.350;2023-07-16T09:01:05;95576.63;;;28.30;100.00
14067;BME280;7108;42.684;23.350;2023-07-16T09:03:31;95558.63;;;28.35;100.00
14067;BME280;7108;42.684;23.350;2023-07-16T09:05:56;95555.06;;;28.34;100.00
14067;BME280;7108;42.684;23.350;2023-07-16T09:08:22;95567.53;;;28.39;100.00
14067;BME280;7108;42.684;23.350;2023-07-16T09:10:54;95561.25;;;28.38;100.00
14067;BME280;7108;42.684;23.350;2023-07-16T09:13:20;95558.91;;;28.54;100.00
14067;BME280;7108;42.684;23.350;2023-07-16T09:15:51;95558.91;;;28.54;100.00
14067;BME280;7108;42.684;23.350;2023-07-16T09:18:26;95554.13;;;28.64;100.00
14067;BME280;7108;42.684;23.350;2023-07-16T09:20:59;95561.50;;;28.76;100.00
14067;BME280;7108;42.684;23.350;2023-07-16T09:23:29;95546.72;;;28.70;100.00
14067;BME280;7108;42.684;23.350;2023-07-16T09:25:55;95552.09;;;28.82;100.00
14067;BME280;7108;42.684;23.350;2023-07-16T09:28:21;95552.22;;;28.88;100.00
14067;BME280;7108;42.684;23.350;2023-07-16T09:30:47;95545.44;;;28.89;100.00
14067;BME280;7108;42.684;23.350;2023-07-16T09:33:18;95557.09;;;29.02;100.00
14067;BME280;7108;42.684;23.350;2023-07-16T09:35:47;95551.38;;;29.05;100.00
14067;BME280;7108;42.684;23.350;2023-07-16T09:38:17;95531.47;;;29.07;100.00
14067;BME280;7108;42.684;23.350;2023-07-16T09:40:43;95540.38;;;29.19;100.00
14067;BME280;7108;42.684;23.350;2023-07-16T09:43:09;95532.94;;;29.25;100.00
14067;BME280;7108;42.684;23.350;2023-07-16T09:45:35;95536.19;;;29.33;100.00
14067;BME280;7108;42.684;23.350;2023-07-16T09:48:02;95543.09;;;29.37;100.00
14067;BME280;7108;42.684;23.350;2023-07-16T09:50:29;95544.59;;;29.47;100.00
14067;BME280;7108;42.684;23.350;2023-07-16T09:52:56;95532.84;;;29.52;100.00
14067;BME280;7108;42.684;23.350;2023-07-16T09:55:23;95538.63;;;29.63;100.00
14067;BME280;7108;42.684;23.350;2023-07-16T09:57:49;95532.44;;;29.68;100.00
14067;BME280;7108;42.684;23.350;2023-07-16T10:00:16;95527.97;;;29.85;100.00
14067;BME280;7108;42.684;23.350;2023-07-16T10:02:42;95515.78;;;29.91;100.00
14067;BME280;7108;42.684;23.350;2023-07-16T10:05:16;95520.19;;;29.98;100.00
14067;BME280;7108;42.684;23.350;2023-07-16T10:07:42;95513.41;;;30.13;100.00
14067;BME280;7108;42.684;23.350;2023-07-16T10:10:10;95520.63;;;30.20;100.00
14067;BME280;7108;42.684;23.350;2023-07-16T10:12:36;95513.34;;;30.22;100.00
14067;BME280;7108;42.684;23.350;2023-07-16T10:15:05;95500.00;;;30.26;100.00
14067;BME280;7108;42.684;23.350;2023-07-16T10:17:31;95518.88;;;30.46;100.00
14067;BME280;7108;42.684;23.350;2023-07-16T10:19:59;95519.44;;;30.50;100.00
14067;BME280;7108;42.684;23.350;2023-07-16T10:22:51;95515.69;;;30.67;100.00
14067;BME280;7108;42.684;23.350;2023-07-16T10:27:51;95516.66;;;31.07;100.00
14067;BME280;7108;42.684;23.350;2023-07-16T10:30:17;95512.31;;;31.21;100.00
14067;BME280;7108;42.684;23.350;2023-07-16T10:32:44;95515.03;;;31.35;100.00
14067;BME280;7108;42.684;23.350;2023-07-16T10:35:09;95506.78;;;31.40;100.00
14067;BME280;7108;42.684;23.350;2023-07-16T10:37:35;95489.56;;;31.42;97.49
14067;BME280;7108;42.684;23.350;2023-07-16T10:40:02;95495.63;;;31.55;98.79
14067;BME280;7108;42.684;23.350;2023-07-16T10:42:29;95498.56;;;31.66;96.89
14067;BME280;7108;42.684;23.350;2023-07-16T10:44:57;95513.66;;;31.79;88.75
14067;BME280;7108;42.684;23.350;2023-07-16T10:47:24;95496.47;;;31.81;90.88
14067;BME280;7108;42.684;23.350;2023-07-16T10:49:51;95489.19;;;31.89;100.00
14067;BME280;7108;42.684;23.350;2023-07-16T10:52:23;95492.47;;;31.87;99.42
14067;BME280;7108;42.684;23.350;2023-07-16T10:54:49;95486.88;;;32.01;100.00
14067;BME280;7108;42.684;23.350;2023-07-16T10:57:16;95493.81;;;32.11;96.07
14067;BME280;7108;42.684;23.350;2023-07-16T10:59:42;95491.63;;;32.21;98.80
14067;BME280;7108;42.684;23.350;2023-07-16T11:02:12;95482.84;;;32.28;97.04
14067;BME280;7108;42.684;23.350;2023-07-16T11:04:39;95483.03;;;32.24;89.62
14067;BME280;7108;42.684;23.350;2023-07-16T11:07:06;95486.34;;;32.23;87.44
14067;BME280;7108;42.684;23.350;2023-07-16T11:09:33;95470.31;;;32.18;90.68
14067;BME280;7108;42.684;23.350;2023-07-16T11:12:09;95484.41;;;32.34;92.14
14067;BME280;7108;42.684;23.350;2023-07-16T11:14:35;95463.84;;;32.32;87.53
14067;BME280;7108;42.684;23.350;2023-07-16T11:17:08;95477.16;;;32.42;89.21
14067;BME280;7108;42.684;23.350;2023-07-16T11:19:35;95468.31;;;32.49;87.83
14067;BME280;7108;42.684;23.350;2023-07-16T11:22:02;95458.19;;;32.52;85.09
14067;BME280;7108;42.684;23.350;2023-07-16T11:24:27;95472.56;;;32.64;81.12
14067;BME280;7108;42.684;23.350;2023-07-16T11:26:56;95473.59;;;32.67;81.26
14067;BME280;7108;42.684;23.350;2023-07-16T11:29:25;95452.81;;;32.68;81.31
14067;BME280;7108;42.684;23.350;2023-07-16T11:31:52;95448.81;;;32.80;89.20
14067;BME280;7108;42.684;23.350;2023-07-16T11:34:20;95462.16;;;32.96;79.24
14067;BME280;7108;42.684;23.350;2023-07-16T11:36:47;95450.66;;;32.88;77.96
14067;BME280;7108;42.684;23.350;2023-07-16T11:39:12;95463.16;;;32.93;74.28
14067;BME280;7108;42.684;23.350;2023-07-16T11:41:38;95458.59;;;32.95;71.52
14067;BME280;7108;42.684;23.350;2023-07-16T11:44:03;95446.94;;;32.97;70.46
14067;BME280;7108;42.684;23.350;2023-07-16T11:46:32;95459.03;;;33.14;74.50
14067;BME280;7108;42.684;23.350;2023-07-16T11:48:59;95454.19;;;33.14;67.76
14067;BME280;7108;42.684;23.350;2023-07-16T11:51:25;95446.72;;;33.00;65.70
14067;BME280;7108;42.684;23.350;2023-07-16T11:53:50;95453.94;;;33.12;71.72
14067;BME280;7108;42.684;23.350;2023-07-16T11:56:15;95458.28;;;33.19;66.03
14067;BME280;7108;42.684;23.350;2023-07-16T11:58:41;95441.50;;;33.13;69.38
14067;BME280;7108;42.684;23.350;2023-07-16T12:01:06;95431.31;;;33.10;66.49
14067;BME280;7108;42.684;23.350;2023-07-16T12:03:32;95448.94;;;33.27;66.70
14067;BME280;7108;42.684;23.350;2023-07-16T12:05:57;95432.13;;;33.22;63.12
14067;BME280;7108;42.684;23.350;2023-07-16T12:08:23;95434.19;;;33.21;59.90
14067;BME280;7108;42.684;23.350;2023-07-16T12:10:48;95441.53;;;33.24;59.03
14067;BME280;7108;42.684;23.350;2023-07-16T12:13:14;95438.88;;;33.04;55.83
14067;BME280;7108;42.684;23.350;2023-07-16T12:15:39;95444.63;;;32.95;54.73
14067;BME280;7108;42.684;23.350;2023-07-16T12:18:04;95438.31;;;32.95;54.28
14067;BME280;7108;42.684;23.350;2023-07-16T12:20:30;95436.78;;;32.99;56.65
14067;BME280;7108;42.684;23.350;2023-07-16T12:22:55;95424.63;;;33.02;56.23
14067;BME280;7108;42.684;23.350;2023-07-16T12:25:21;95422.59;;;33.03;56.83
14067;BME280;7108;42.684;23.350;2023-07-16T12:27:46;95427.28;;;33.17;55.54
14067;BME280;7108;42.684;23.350;2023-07-16T12:30:12;95420.41;;;33.12;55.76
14067;BME280;7108;42.684;23.350;2023-07-16T12:32:37;95432.63;;;33.20;55.91
14067;BME280;7108;42.684;23.350;2023-07-16T12:35:03;95433.28;;;33.04;53.52
14067;BME280;7108;42.684;23.350;2023-07-16T12:37:30;95423.56;;;32.94;53.18
14067;BME280;7108;42.684;23.350;2023-07-16T12:39:55;95417.97;;;32.94;50.72
14067;BME280;7108;42.684;23.350;2023-07-16T12:42:21;95432.00;;;33.00;50.09
14067;BME280;7108;42.684;23.350;2023-07-16T12:44:46;95416.59;;;32.79;51.84
14067;BME280;7108;42.684;23.350;2023-07-16T12:47:12;95416.69;;;32.90;55.74
14067;BME280;7108;42.684;23.350;2023-07-16T12:49:37;95428.16;;;32.97;55.69
14067;BME280;7108;42.684;23.350;2023-07-16T12:52:03;95416.94;;;32.92;54.13
14067;BME280;7108;42.684;23.350;2023-07-16T12:54:28;95407.50;;;32.84;52.59
14067;BME280;7108;42.684;23.350;2023-07-16T12:56:54;95418.03;;;33.00;56.85